sensor_id;sensor_type;location;lat;lon;timestamp;P1;durP1;ratioP1;P2;durP2;ratioP2
79371;SDS011;68914;51.262;6.802;2023-04-09T00:00:46;39.25;;;19.25;;
79371;SDS011;68914;51.262;6.802;2023-04-09T00:01:47;40.90;;;20.95;;
79371;SDS011;68914;51.262;6.802;2023-04-09T00:02:48;46.10;;;22.13;;
79371;SDS011;68914;51.262;6.802;2023-04-09T00:03:48;42.40;;;20.20;;
79371;SDS011;68914;51.262;6.802;2023-04-09T00:04:49;42.17;;;21.20;;
79371;SDS011;68914;51.262;6.802;2023-04-09T00:05:49;41.73;;;20.67;;
79371;SDS011;68914;51.262;6.802;2023-04-09T00:06:50;41.50;;;20.77;;
79371;SDS011;68914;51.262;6.802;2023-04-09T00:07:51;39.83;;;19.70;;
79371;SDS011;68914;51.262;6.802;2023-04-09T00:08:52;41.20;;;20.73;;
79371;SDS011;68914;51.262;6.802;2023-04-09T00:09:52;43.72;;;20.95;;
79371;SDS011;68914;51.262;6.802;2023-04-09T00:10:53;44.90;;;21.47;;
79371;SDS011;68914;51.262;6.802;2023-04-09T00:11:54;44.20;;;21.95;;
79371;SDS011;68914;51.262;6.802;2023-04-09T00:12:56;41.63;;;20.48;;
79371;SDS011;68914;51.262;6.802;2023-04-09T00:13:57;40.60;;;19.47;;
79371;SDS011;68914;51.262;6.802;2023-04-09T00:14:57;41.60;;;20.35;;
79371;SDS011;68914;51.262;6.802;2023-04-09T00:15:58;42.08;;;20.58;;
79371;SDS011;68914;51.262;6.802;2023-04-09T00:16:59;42.00;;;21.10;;
79371;SDS011;68914;51.262;6.802;2023-04-09T00:17:59;40.85;;;20.58;;
79371;SDS011;68914;51.262;6.802;2023-04-09T00:19:00;43.90;;;20.73;;
79371;SDS011;68914;51.262;6.802;2023-04-09T00:20:01;46.17;;;23.03;;
79371;SDS011;68914;51.262;6.802;2023-04-09T00:21:02;44.75;;;21.38;;
79371;SDS011;68914;51.262;6.802;2023-04-09T00:22:02;41.65;;;21.17;;
79371;SDS011;68914;51.262;6.802;2023-04-09T00:23:03;40.37;;;19.10;;
79371;SDS011;68914;51.262;6.802;2023-04-09T00:24:09;43.63;;;21.10;;
79371;SDS011;68914;51.262;6.802;2023-04-09T00:25:10;44.90;;;21.60;;
79371;SDS011;68914;51.262;6.802;2023-04-09T00:26:11;46.42;;;20.77;;
79371;SDS011;68914;51.262;6.802;2023-04-09T00:27:13;40.83;;;20.70;;
79371;SDS011;68914;51.262;6.802;2023-04-09T00:28:13;44.23;;;22.07;;
79371;SDS011;68914;51.262;6.802;2023-04-09T00:29:15;44.83;;;21.05;;
79371;SDS011;68914;51.262;6.802;2023-04-09T00:30:34;43.05;;;20.60;;
79371;SDS011;68914;51.262;6.802;2023-04-09T00:31:34;45.08;;;22.00;;
79371;SDS011;68914;51.262;6.802;2023-04-09T00:32:41;43.38;;;21.00;;
79371;SDS011;68914;51.262;6.802;2023-04-09T00:33:41;44.17;;;21.60;;
79371;SDS011;68914;51.262;6.802;2023-04-09T00:34:45;46.17;;;21.60;;
79371;SDS011;68914;51.262;6.802;2023-04-09T00:35:46;45.90;;;22.27;;
79371;SDS011;68914;51.262;6.802;2023-04-09T00:36:46;43.70;;;21.57;;
79371;SDS011;68914;51.262;6.802;2023-04-09T00:37:47;44.28;;;20.00;;
79371;SDS011;68914;51.262;6.802;2023-04-09T00:38:48;42.27;;;20.53;;
79371;SDS011;68914;51.262;6.802;2023-04-09T00:39:49;49.10;;;22.38;;
79371;SDS011;68914;51.262;6.802;2023-04-09T00:40:50;43.87;;;21.27;;
79371;SDS011;68914;51.262;6.802;2023-04-09T00:41:57;44.08;;;21.67;;
79371;SDS011;68914;51.262;6.802;2023-04-09T00:43:01;40.08;;;19.83;;
79371;SDS011;68914;51.262;6.802;2023-04-09T00:44:02;45.20;;;22.15;;
79371;SDS011;68914;51.262;6.802;2023-04-09T00:45:03;45.90;;;22.67;;
79371;SDS011;68914;51.262;6.802;2023-04-09T00:46:05;47.03;;;22.35;;
79371;SDS011;68914;51.262;6.802;2023-04-09T00:47:06;44.08;;;21.65;;
79371;SDS011;68914;51.262;6.802;2023-04-09T00:48:06;43.43;;;21.80;;
79371;SDS011;68914;51.262;6.802;2023-04-09T00:49:07;45.38;;;22.02;;
79371;SDS011;68914;51.262;6.802;2023-04-09T00:50:08;46.77;;;21.37;;
79371;SDS011;68914;51.262;6.802;2023-04-09T00:51:09;43.58;;;21.38;;
79371;SDS011;68914;51.262;6.802;2023-04-09T00:52:10;44.95;;;21.83;;
79371;SDS011;68914;51.262;6.802;2023-04-09T00:53:11;47.50;;;22.43;;
79371;SDS011;68914;51.262;6.802;2023-04-09T00:54:12;42.35;;;20.02;;
79371;SDS011;68914;51.262;6.802;2023-04-09T00:55:13;45.70;;;21.40;;
79371;SDS011;68914;51.262;6.802;2023-04-09T00:56:14;43.60;;;21.15;;
79371;SDS011;68914;51.262;6.802;2023-04-09T00:57:16;42.80;;;21.48;;
79371;SDS011;68914;51.262;6.802;2023-04-09T00:58:18;41.58;;;20.48;;
79371;SDS011;68914;51.262;6.802;2023-04-09T00:59:27;45.60;;;22.00;;
79371;SDS011;68914;51.262;6.802;2023-04-09T01:00:30;49.55;;;22.50;;
79371;SDS011;68914;51.262;6.802;2023-04-09T01:01:31;47.00;;;22.53;;
79371;SDS011;68914;51.262;6.802;2023-04-09T01:02:32;43.00;;;21.70;;
79371;SDS011;68914;51.262;6.802;2023-04-09T01:03:32;47.17;;;22.33;;
79371;SDS011;68914;51.262;6.802;2023-04-09T01:04:33;44.37;;;20.67;;
79371;SDS011;68914;51.262;6.802;2023-04-09T01:13:22;40.38;;;19.95;;
79371;SDS011;68914;51.262;6.802;2023-04-09T01:16:07;43.00;;;20.63;;
79371;SDS011;68914;51.262;6.802;2023-04-09T01:17:14;46.33;;;22.45;;
79371;SDS011;68914;51.262;6.802;2023-04-09T01:18:28;49.45;;;22.58;;
79371;SDS011;68914;51.262;6.802;2023-04-09T01:20:59;46.78;;;21.02;;
79371;SDS011;68914;51.262;6.802;2023-04-09T01:22:04;46.10;;;21.70;;
79371;SDS011;68914;51.262;6.802;2023-04-09T01:23:28;48.67;;;22.83;;
79371;SDS011;68914;51.262;6.802;2023-04-09T01:24:39;48.58;;;22.77;;
79371;SDS011;68914;51.262;6.802;2023-04-09T01:26:09;44.90;;;21.63;;
79371;SDS011;68914;51.262;6.802;2023-04-09T01:27:21;48.58;;;23.40;;
79371;SDS011;68914;51.262;6.802;2023-04-09T01:28:35;47.43;;;21.97;;
79371;SDS011;68914;51.262;6.802;2023-04-09T01:29:46;44.83;;;22.60;;
79371;SDS011;68914;51.262;6.802;2023-04-09T01:31:00;42.53;;;20.58;;
79371;SDS011;68914;51.262;6.802;2023-04-09T01:32:05;46.38;;;22.52;;
79371;SDS011;68914;51.262;6.802;2023-04-09T01:33:07;48.10;;;22.50;;
79371;SDS011;68914;51.262;6.802;2023-04-09T01:34:10;50.75;;;22.85;;
79371;SDS011;68914;51.262;6.802;2023-04-09T01:35:13;50.72;;;23.77;;
79371;SDS011;68914;51.262;6.802;2023-04-09T01:36:13;52.03;;;23.90;;
79371;SDS011;68914;51.262;6.802;2023-04-09T01:37:15;47.40;;;22.27;;
79371;SDS011;68914;51.262;6.802;2023-04-09T01:38:17;48.85;;;23.42;;
79371;SDS011;68914;51.262;6.802;2023-04-09T01:39:20;50.50;;;24.05;;
79371;SDS011;68914;51.262;6.802;2023-04-09T01:40:21;51.88;;;24.17;;
79371;SDS011;68914;51.262;6.802;2023-04-09T01:41:22;48.47;;;23.38;;
79371;SDS011;68914;51.262;6.802;2023-04-09T01:42:25;49.22;;;23.35;;
79371;SDS011;68914;51.262;6.802;2023-04-09T01:43:26;50.88;;;22.75;;
79371;SDS011;68914;51.262;6.802;2023-04-09T01:44:27;46.60;;;22.10;;
79371;SDS011;68914;51.262;6.802;2023-04-09T01:45:29;50.87;;;23.00;;
79371;SDS011;68914;51.262;6.802;2023-04-09T01:46:29;47.00;;;22.13;;
79371;SDS011;68914;51.262;6.802;2023-04-09T01:47:31;47.28;;;22.83;;
79371;SDS011;68914;51.262;6.802;2023-04-09T01:48:32;46.60;;;22.55;;
79371;SDS011;68914;51.262;6.802;2023-04-09T01:49:34;50.17;;;23.33;;
79371;SDS011;68914;51.262;6.802;2023-04-09T01:50:35;49.27;;;23.77;;
79371;SDS011;68914;51.262;6.802;2023-04-09T01:51:36;47.72;;;22.77;;
79371;SDS011;68914;51.262;6.802;2023-04-09T01:52:37;47.90;;;23.23;;
79371;SDS011;68914;51.262;6.802;2023-04-09T01:53:38;49.70;;;24.52;;
79371;SDS011;68914;51.262;6.802;2023-04-09T01:54:41;49.20;;;23.58;;
79371;SDS011;68914;51.262;6.802;2023-04-09T01:55:42;46.95;;;22.55;;
79371;SDS011;68914;51.262;6.802;2023-04-09T01:56:43;48.03;;;23.57;;
79371;SDS011;68914;51.262;6.802;2023-04-09T01:57:45;47.70;;;23.17;;
79371;SDS011;68914;51.262;6.802;2023-04-09T01:58:45;45.17;;;22.50;;
79371;SDS011;68914;51.262;6.802;2023-04-09T01:59:46;45.88;;;23.02;;
79371;SDS011;68914;51.262;6.802;2023-04-09T02:00:47;46.83;;;21.93;;
79371;SDS011;68914;51.262;6.802;2023-04-09T02:01:52;45.90;;;22.88;;
79371;SDS011;68914;51.262;6.802;2023-04-09T02:03:17;43.00;;;22.05;;
79371;SDS011;68914;51.262;6.802;2023-04-09T02:04:33;43.97;;;21.33;;
79371;SDS011;68914;51.262;6.802;2023-04-09T02:05:40;50.63;;;23.88;;
79371;SDS011;68914;51.262;6.802;2023-04-09T02:06:57;44.47;;;21.63;;
79371;SDS011;68914;51.262;6.802;2023-04-09T02:08:04;45.38;;;21.92;;
79371;SDS011;68914;51.262;6.802;2023-04-09T02:09:08;45.80;;;21.83;;
79371;SDS011;68914;51.262;6.802;2023-04-09T02:10:11;48.33;;;21.98;;
79371;SDS011;68914;51.262;6.802;2023-04-09T02:11:13;45.58;;;22.48;;
79371;SDS011;68914;51.262;6.802;2023-04-09T02:12:15;45.87;;;22.43;;
79371;SDS011;68914;51.262;6.802;2023-04-09T02:13:18;45.60;;;22.25;;
79371;SDS011;68914;51.262;6.802;2023-04-09T02:14:20;44.55;;;21.52;;
79371;SDS011;68914;51.262;6.802;2023-04-09T02:15:23;43.85;;;22.20;;
79371;SDS011;68914;51.262;6.802;2023-04-09T02:16:23;46.50;;;22.83;;
79371;SDS011;68914;51.262;6.802;2023-04-09T02:17:25;44.45;;;21.35;;
79371;SDS011;68914;51.262;6.802;2023-04-09T02:18:28;45.13;;;22.53;;
79371;SDS011;68914;51.262;6.802;2023-04-09T02:20:43;44.72;;;22.23;;
79371;SDS011;68914;51.262;6.802;2023-04-09T02:21:45;46.67;;;22.05;;
79371;SDS011;68914;51.262;6.802;2023-04-09T02:22:45;52.72;;;24.63;;
79371;SDS011;68914;51.262;6.802;2023-04-09T02:23:46;47.80;;;23.00;;
79371;SDS011;68914;51.262;6.802;2023-04-09T02:24:47;46.30;;;23.58;;
79371;SDS011;68914;51.262;6.802;2023-04-09T02:25:47;46.37;;;22.80;;
79371;SDS011;68914;51.262;6.802;2023-04-09T02:26:49;44.00;;;21.25;;
79371;SDS011;68914;51.262;6.802;2023-04-09T02:27:49;45.15;;;21.25;;
79371;SDS011;68914;51.262;6.802;2023-04-09T02:28:50;43.43;;;21.97;;
79371;SDS011;68914;51.262;6.802;2023-04-09T02:29:51;47.03;;;23.25;;
79371;SDS011;68914;51.262;6.802;2023-04-09T02:30:51;44.47;;;23.00;;
79371;SDS011;68914;51.262;6.802;2023-04-09T02:31:52;42.92;;;22.52;;
79371;SDS011;68914;51.262;6.802;2023-04-09T02:32:52;46.00;;;22.03;;
79371;SDS011;68914;51.262;6.802;2023-04-09T02:33:53;45.00;;;22.10;;
79371;SDS011;68914;51.262;6.802;2023-04-09T02:34:53;49.67;;;23.87;;
79371;SDS011;68914;51.262;6.802;2023-04-09T02:35:54;48.33;;;24.58;;
79371;SDS011;68914;51.262;6.802;2023-04-09T02:36:55;48.27;;;23.30;;
79371;SDS011;68914;51.262;6.802;2023-04-09T02:37:55;45.90;;;22.42;;
79371;SDS011;68914;51.262;6.802;2023-04-09T02:38:56;45.07;;;22.97;;
79371;SDS011;68914;51.262;6.802;2023-04-09T02:39:57;49.72;;;22.50;;
79371;SDS011;68914;51.262;6.802;2023-04-09T02:40:57;47.47;;;22.73;;
79371;SDS011;68914;51.262;6.802;2023-04-09T02:41:58;46.70;;;22.37;;
79371;SDS011;68914;51.262;6.802;2023-04-09T02:43:00;47.83;;;23.30;;
79371;SDS011;68914;51.262;6.802;2023-04-09T02:44:01;45.58;;;22.60;;
79371;SDS011;68914;51.262;6.802;2023-04-09T02:45:02;49.23;;;23.43;;
79371;SDS011;68914;51.262;6.802;2023-04-09T02:46:06;46.70;;;23.37;;
79371;SDS011;68914;51.262;6.802;2023-04-09T02:47:08;50.72;;;23.73;;
79371;SDS011;68914;51.262;6.802;2023-04-09T02:48:10;48.05;;;23.63;;
79371;SDS011;68914;51.262;6.802;2023-04-09T02:49:11;51.00;;;24.35;;
79371;SDS011;68914;51.262;6.802;2023-04-09T02:50:12;44.80;;;21.83;;
79371;SDS011;68914;51.262;6.802;2023-04-09T02:51:19;49.38;;;24.42;;
79371;SDS011;68914;51.262;6.802;2023-04-09T02:52:19;49.42;;;24.65;;
79371;SDS011;68914;51.262;6.802;2023-04-09T02:53:23;50.65;;;23.38;;
79371;SDS011;68914;51.262;6.802;2023-04-09T02:54:24;51.15;;;24.20;;
79371;SDS011;68914;51.262;6.802;2023-04-09T02:55:25;45.77;;;22.23;;
79371;SDS011;68914;51.262;6.802;2023-04-09T02:56:26;49.80;;;24.13;;
79371;SDS011;68914;51.262;6.802;2023-04-09T02:57:26;48.83;;;23.43;;
79371;SDS011;68914;51.262;6.802;2023-04-09T02:58:27;50.35;;;24.95;;
79371;SDS011;68914;51.262;6.802;2023-04-09T02:59:28;49.08;;;22.63;;
79371;SDS011;68914;51.262;6.802;2023-04-09T03:00:28;48.23;;;22.97;;
79371;SDS011;68914;51.262;6.802;2023-04-09T03:01:29;50.15;;;24.02;;
79371;SDS011;68914;51.262;6.802;2023-04-09T03:02:30;46.93;;;22.03;;
79371;SDS011;68914;51.262;6.802;2023-04-09T03:03:30;49.28;;;24.20;;
79371;SDS011;68914;51.262;6.802;2023-04-09T03:04:31;48.20;;;23.23;;
79371;SDS011;68914;51.262;6.802;2023-04-09T03:05:32;49.70;;;24.25;;
79371;SDS011;68914;51.262;6.802;2023-04-09T03:06:32;46.70;;;22.03;;
79371;SDS011;68914;51.262;6.802;2023-04-09T03:07:33;48.60;;;23.67;;
79371;SDS011;68914;51.262;6.802;2023-04-09T03:08:34;51.30;;;24.03;;
79371;SDS011;68914;51.262;6.802;2023-04-09T03:09:34;50.35;;;23.77;;
79371;SDS011;68914;51.262;6.802;2023-04-09T03:10:38;46.75;;;23.27;;
79371;SDS011;68914;51.262;6.802;2023-04-09T03:11:39;48.63;;;23.37;;
79371;SDS011;68914;51.262;6.802;2023-04-09T03:12:39;51.08;;;24.73;;
79371;SDS011;68914;51.262;6.802;2023-04-09T03:13:40;49.90;;;23.33;;
79371;SDS011;68914;51.262;6.802;2023-04-09T03:14:41;47.70;;;24.10;;
79371;SDS011;68914;51.262;6.802;2023-04-09T03:15:41;47.77;;;23.37;;
79371;SDS011;68914;51.262;6.802;2023-04-09T03:16:42;48.13;;;23.00;;
79371;SDS011;68914;51.262;6.802;2023-04-09T03:17:42;47.17;;;23.60;;
79371;SDS011;68914;51.262;6.802;2023-04-09T03:18:43;48.30;;;23.10;;
79371;SDS011;68914;51.262;6.802;2023-04-09T03:19:44;51.70;;;24.33;;
79371;SDS011;68914;51.262;6.802;2023-04-09T03:20:45;48.72;;;23.98;;
79371;SDS011;68914;51.262;6.802;2023-04-09T03:21:47;44.47;;;21.40;;
79371;SDS011;68914;51.262;6.802;2023-04-09T03:22:51;48.10;;;21.45;;
79371;SDS011;68914;51.262;6.802;2023-04-09T03:24:03;48.13;;;24.20;;
79371;SDS011;68914;51.262;6.802;2023-04-09T03:25:03;52.10;;;23.45;;
79371;SDS011;68914;51.262;6.802;2023-04-09T03:26:06;47.13;;;23.67;;
79371;SDS011;68914;51.262;6.802;2023-04-09T03:27:14;49.40;;;23.85;;
79371;SDS011;68914;51.262;6.802;2023-04-09T03:28:15;47.95;;;22.02;;
79371;SDS011;68914;51.262;6.802;2023-04-09T03:29:20;52.05;;;22.65;;
79371;SDS011;68914;51.262;6.802;2023-04-09T03:30:21;51.50;;;23.87;;
79371;SDS011;68914;51.262;6.802;2023-04-09T03:31:21;50.60;;;23.25;;
79371;SDS011;68914;51.262;6.802;2023-04-09T03:32:22;49.67;;;23.33;;
79371;SDS011;68914;51.262;6.802;2023-04-09T03:33:23;47.13;;;22.08;;
79371;SDS011;68914;51.262;6.802;2023-04-09T03:34:27;47.15;;;22.60;;
79371;SDS011;68914;51.262;6.802;2023-04-09T03:35:30;44.75;;;22.33;;
79371;SDS011;68914;51.262;6.802;2023-04-09T03:36:33;46.35;;;21.88;;
79371;SDS011;68914;51.262;6.802;2023-04-09T03:37:36;51.45;;;23.48;;
79371;SDS011;68914;51.262;6.802;2023-04-09T03:38:37;52.27;;;23.03;;
79371;SDS011;68914;51.262;6.802;2023-04-09T03:39:44;46.28;;;22.88;;
79371;SDS011;68914;51.262;6.802;2023-04-09T03:40:44;52.35;;;23.80;;
79371;SDS011;68914;51.262;6.802;2023-04-09T03:41:45;48.37;;;23.43;;
79371;SDS011;68914;51.262;6.802;2023-04-09T03:42:49;49.03;;;22.95;;
79371;SDS011;68914;51.262;6.802;2023-04-09T03:43:51;48.67;;;23.70;;
79371;SDS011;68914;51.262;6.802;2023-04-09T03:44:55;45.55;;;21.08;;
79371;SDS011;68914;51.262;6.802;2023-04-09T03:46:15;50.22;;;22.52;;
79371;SDS011;68914;51.262;6.802;2023-04-09T03:47:17;45.33;;;21.13;;
79371;SDS011;68914;51.262;6.802;2023-04-09T03:48:18;47.23;;;23.00;;
79371;SDS011;68914;51.262;6.802;2023-04-09T03:49:19;50.95;;;22.92;;
79371;SDS011;68914;51.262;6.802;2023-04-09T03:50:20;45.63;;;21.48;;
79371;SDS011;68914;51.262;6.802;2023-04-09T03:51:24;49.80;;;22.08;;
79371;SDS011;68914;51.262;6.802;2023-04-09T03:52:30;45.87;;;22.23;;
79371;SDS011;68914;51.262;6.802;2023-04-09T03:53:38;45.90;;;21.25;;
79371;SDS011;68914;51.262;6.802;2023-04-09T03:54:40;47.70;;;22.75;;
79371;SDS011;68914;51.262;6.802;2023-04-09T03:55:47;43.47;;;20.00;;
79371;SDS011;68914;51.262;6.802;2023-04-09T03:56:54;45.55;;;21.70;;
79371;SDS011;68914;51.262;6.802;2023-04-09T03:57:57;42.08;;;21.05;;
79371;SDS011;68914;51.262;6.802;2023-04-09T03:59:02;42.03;;;20.38;;
79371;SDS011;68914;51.262;6.802;2023-04-09T04:00:10;40.40;;;19.92;;
79371;SDS011;68914;51.262;6.802;2023-04-09T04:01:30;46.85;;;22.25;;
79371;SDS011;68914;51.262;6.802;2023-04-09T04:02:33;45.20;;;20.25;;
79371;SDS011;68914;51.262;6.802;2023-04-09T04:03:37;41.47;;;19.50;;
79371;SDS011;68914;51.262;6.802;2023-04-09T04:04:49;41.38;;;19.52;;
79371;SDS011;68914;51.262;6.802;2023-04-09T04:05:50;42.10;;;19.33;;
79371;SDS011;68914;51.262;6.802;2023-04-09T04:06:51;41.67;;;19.38;;
79371;SDS011;68914;51.262;6.802;2023-04-09T04:08:08;38.28;;;18.60;;
79371;SDS011;68914;51.262;6.802;2023-04-09T04:09:09;43.60;;;20.27;;
79371;SDS011;68914;51.262;6.802;2023-04-09T04:10:36;43.80;;;20.03;;
79371;SDS011;68914;51.262;6.802;2023-04-09T04:11:36;40.08;;;19.50;;
79371;SDS011;68914;51.262;6.802;2023-04-09T04:12:37;40.07;;;18.97;;
79371;SDS011;68914;51.262;6.802;2023-04-09T04:13:45;41.58;;;19.85;;
79371;SDS011;68914;51.262;6.802;2023-04-09T04:14:45;42.03;;;18.88;;
79371;SDS011;68914;51.262;6.802;2023-04-09T04:15:56;40.17;;;19.55;;
79371;SDS011;68914;51.262;6.802;2023-04-09T04:16:57;40.63;;;18.75;;
79371;SDS011;68914;51.262;6.802;2023-04-09T04:18:02;41.40;;;18.77;;
79371;SDS011;68914;51.262;6.802;2023-04-09T04:19:16;40.75;;;18.33;;
79371;SDS011;68914;51.262;6.802;2023-04-09T04:20:21;40.28;;;18.90;;
79371;SDS011;68914;51.262;6.802;2023-04-09T04:21:33;40.88;;;18.90;;
79371;SDS011;68914;51.262;6.802;2023-04-09T04:22:35;43.35;;;19.58;;
79371;SDS011;68914;51.262;6.802;2023-04-09T04:23:37;41.47;;;19.77;;
79371;SDS011;68914;51.262;6.802;2023-04-09T04:24:50;42.38;;;19.60;;
79371;SDS011;68914;51.262;6.802;2023-04-09T04:25:54;40.88;;;19.30;;
79371;SDS011;68914;51.262;6.802;2023-04-09T04:27:02;37.38;;;18.75;;
79371;SDS011;68914;51.262;6.802;2023-04-09T04:28:07;39.38;;;19.45;;
79371;SDS011;68914;51.262;6.802;2023-04-09T04:29:13;44.63;;;20.67;;
79371;SDS011;68914;51.262;6.802;2023-04-09T04:30:23;39.83;;;18.50;;
79371;SDS011;68914;51.262;6.802;2023-04-09T04:31:37;41.00;;;18.85;;
79371;SDS011;68914;51.262;6.802;2023-04-09T04:32:38;41.72;;;20.08;;
79371;SDS011;68914;51.262;6.802;2023-04-09T04:33:43;41.50;;;19.90;;
79371;SDS011;68914;51.262;6.802;2023-04-09T04:34:48;44.53;;;20.23;;
79371;SDS011;68914;51.262;6.802;2023-04-09T04:36:08;41.70;;;20.63;;
79371;SDS011;68914;51.262;6.802;2023-04-09T04:37:21;38.90;;;17.75;;
79371;SDS011;68914;51.262;6.802;2023-04-09T04:38:23;39.90;;;19.20;;
79371;SDS011;68914;51.262;6.802;2023-04-09T04:39:23;40.93;;;18.57;;
79371;SDS011;68914;51.262;6.802;2023-04-09T04:40:30;41.63;;;19.67;;
79371;SDS011;68914;51.262;6.802;2023-04-09T04:41:34;42.22;;;19.25;;
79371;SDS011;68914;51.262;6.802;2023-04-09T04:42:52;42.00;;;19.02;;
79371;SDS011;68914;51.262;6.802;2023-04-09T04:43:53;39.07;;;19.13;;
79371;SDS011;68914;51.262;6.802;2023-04-09T04:44:56;43.33;;;19.30;;
79371;SDS011;68914;51.262;6.802;2023-04-09T04:46:16;38.53;;;18.92;;
79371;SDS011;68914;51.262;6.802;2023-04-09T04:47:16;41.03;;;18.92;;
79371;SDS011;68914;51.262;6.802;2023-04-09T04:48:18;41.33;;;19.30;;
79371;SDS011;68914;51.262;6.802;2023-04-09T04:49:19;40.10;;;19.30;;
79371;SDS011;68914;51.262;6.802;2023-04-09T04:50:21;42.13;;;19.42;;
79371;SDS011;68914;51.262;6.802;2023-04-09T04:51:30;42.63;;;19.40;;
79371;SDS011;68914;51.262;6.802;2023-04-09T04:52:50;39.80;;;18.80;;
79371;SDS011;68914;51.262;6.802;2023-04-09T04:53:51;42.35;;;19.15;;
79371;SDS011;68914;51.262;6.802;2023-04-09T04:54:51;40.60;;;18.87;;
79371;SDS011;68914;51.262;6.802;2023-04-09T04:55:56;37.70;;;18.63;;
79371;SDS011;68914;51.262;6.802;2023-04-09T04:56:59;39.47;;;19.27;;
79371;SDS011;68914;51.262;6.802;2023-04-09T04:58:26;41.65;;;19.27;;
79371;SDS011;68914;51.262;6.802;2023-04-09T04:59:30;37.67;;;17.92;;
79371;SDS011;68914;51.262;6.802;2023-04-09T05:00:39;42.38;;;19.58;;
79371;SDS011;68914;51.262;6.802;2023-04-09T05:01:40;38.13;;;18.77;;
79371;SDS011;68914;51.262;6.802;2023-04-09T05:02:44;39.30;;;18.50;;
79371;SDS011;68914;51.262;6.802;2023-04-09T05:03:50;40.63;;;18.77;;
79371;SDS011;68914;51.262;6.802;2023-04-09T05:05:04;39.93;;;18.80;;
79371;SDS011;68914;51.262;6.802;2023-04-09T05:06:11;39.13;;;18.55;;
79371;SDS011;68914;51.262;6.802;2023-04-09T05:07:16;38.58;;;18.42;;
79371;SDS011;68914;51.262;6.802;2023-04-09T05:08:24;38.45;;;18.65;;
79371;SDS011;68914;51.262;6.802;2023-04-09T05:09:27;39.70;;;18.63;;
79371;SDS011;68914;51.262;6.802;2023-04-09T05:10:39;39.10;;;18.73;;
79371;SDS011;68914;51.262;6.802;2023-04-09T05:11:42;39.88;;;19.15;;
79371;SDS011;68914;51.262;6.802;2023-04-09T05:12:48;39.22;;;18.83;;
79371;SDS011;68914;51.262;6.802;2023-04-09T05:13:56;37.53;;;18.40;;
79371;SDS011;68914;51.262;6.802;2023-04-09T05:14:57;40.27;;;18.27;;
79371;SDS011;68914;51.262;6.802;2023-04-09T05:15:58;38.05;;;19.02;;
79371;SDS011;68914;51.262;6.802;2023-04-09T05:16:59;41.42;;;19.42;;
79371;SDS011;68914;51.262;6.802;2023-04-09T05:18:06;39.17;;;19.80;;
79371;SDS011;68914;51.262;6.802;2023-04-09T05:19:08;42.78;;;20.58;;
79371;SDS011;68914;51.262;6.802;2023-04-09T05:20:10;38.17;;;18.27;;
79371;SDS011;68914;51.262;6.802;2023-04-09T05:21:29;38.17;;;18.75;;
79371;SDS011;68914;51.262;6.802;2023-04-09T05:22:31;37.47;;;18.27;;
79371;SDS011;68914;51.262;6.802;2023-04-09T05:23:31;41.83;;;19.52;;
79371;SDS011;68914;51.262;6.802;2023-04-09T05:24:34;38.30;;;18.98;;
79371;SDS011;68914;51.262;6.802;2023-04-09T05:25:35;39.20;;;17.40;;
79371;SDS011;68914;51.262;6.802;2023-04-09T05:26:36;39.97;;;18.52;;
79371;SDS011;68914;51.262;6.802;2023-04-09T05:27:37;38.08;;;17.60;;
79371;SDS011;68914;51.262;6.802;2023-04-09T05:28:41;37.17;;;18.05;;
79371;SDS011;68914;51.262;6.802;2023-04-09T05:29:47;39.45;;;17.85;;
79371;SDS011;68914;51.262;6.802;2023-04-09T05:30:48;35.97;;;17.77;;
79371;SDS011;68914;51.262;6.802;2023-04-09T05:31:51;36.28;;;17.63;;
79371;SDS011;68914;51.262;6.802;2023-04-09T05:32:59;38.47;;;18.52;;
79371;SDS011;68914;51.262;6.802;2023-04-09T05:34:01;39.78;;;18.77;;
79371;SDS011;68914;51.262;6.802;2023-04-09T05:35:23;38.05;;;18.05;;
79371;SDS011;68914;51.262;6.802;2023-04-09T05:36:24;37.23;;;17.80;;
79371;SDS011;68914;51.262;6.802;2023-04-09T05:37:26;39.65;;;18.90;;
79371;SDS011;68914;51.262;6.802;2023-04-09T05:38:27;37.88;;;18.75;;
79371;SDS011;68914;51.262;6.802;2023-04-09T05:39:31;37.83;;;18.35;;
79371;SDS011;68914;51.262;6.802;2023-04-09T05:40:33;40.08;;;19.00;;
79371;SDS011;68914;51.262;6.802;2023-04-09T05:41:36;41.80;;;19.05;;
79371;SDS011;68914;51.262;6.802;2023-04-09T05:42:55;38.40;;;19.13;;
79371;SDS011;68914;51.262;6.802;2023-04-09T05:44:06;40.00;;;18.60;;
79371;SDS011;68914;51.262;6.802;2023-04-09T05:45:07;39.65;;;18.25;;
79371;SDS011;68914;51.262;6.802;2023-04-09T05:46:08;40.65;;;19.05;;
79371;SDS011;68914;51.262;6.802;2023-04-09T05:47:09;40.05;;;18.75;;
79371;SDS011;68914;51.262;6.802;2023-04-09T05:48:16;35.75;;;17.52;;
79371;SDS011;68914;51.262;6.802;2023-04-09T05:49:18;38.60;;;18.43;;
79371;SDS011;68914;51.262;6.802;2023-04-09T05:50:21;37.88;;;18.38;;
79371;SDS011;68914;51.262;6.802;2023-04-09T05:51:25;37.35;;;18.35;;
79371;SDS011;68914;51.262;6.802;2023-04-09T05:52:28;38.10;;;18.63;;
79371;SDS011;68914;51.262;6.802;2023-04-09T05:53:29;35.75;;;17.50;;
79371;SDS011;68914;51.262;6.802;2023-04-09T05:54:31;36.45;;;18.08;;
79371;SDS011;68914;51.262;6.802;2023-04-09T05:55:32;33.75;;;17.25;;
79371;SDS011;68914;51.262;6.802;2023-04-09T05:56:34;39.15;;;18.17;;
79371;SDS011;68914;51.262;6.802;2023-04-09T05:57:34;34.23;;;16.93;;
79371;SDS011;68914;51.262;6.802;2023-04-09T05:58:37;33.78;;;16.23;;
79371;SDS011;68914;51.262;6.802;2023-04-09T05:59:38;35.40;;;17.27;;
79371;SDS011;68914;51.262;6.802;2023-04-09T06:00:39;36.37;;;17.90;;
79371;SDS011;68914;51.262;6.802;2023-04-09T06:01:40;36.03;;;17.65;;
79371;SDS011;68914;51.262;6.802;2023-04-09T06:02:40;35.07;;;17.17;;
79371;SDS011;68914;51.262;6.802;2023-04-09T06:03:41;37.78;;;18.50;;
79371;SDS011;68914;51.262;6.802;2023-04-09T06:04:42;37.78;;;18.48;;
79371;SDS011;68914;51.262;6.802;2023-04-09T06:05:46;36.15;;;17.98;;
79371;SDS011;68914;51.262;6.802;2023-04-09T06:06:47;36.38;;;17.10;;
79371;SDS011;68914;51.262;6.802;2023-04-09T06:07:48;36.73;;;18.40;;
79371;SDS011;68914;51.262;6.802;2023-04-09T06:08:48;35.17;;;16.65;;
79371;SDS011;68914;51.262;6.802;2023-04-09T06:09:49;32.10;;;15.47;;
79371;SDS011;68914;51.262;6.802;2023-04-09T06:10:49;31.92;;;16.67;;
79371;SDS011;68914;51.262;6.802;2023-04-09T06:11:50;34.27;;;17.00;;
79371;SDS011;68914;51.262;6.802;2023-04-09T06:12:50;35.53;;;16.30;;
79371;SDS011;68914;51.262;6.802;2023-04-09T06:13:51;34.38;;;16.35;;
79371;SDS011;68914;51.262;6.802;2023-04-09T06:14:52;33.17;;;16.53;;
79371;SDS011;68914;51.262;6.802;2023-04-09T06:15:52;33.38;;;16.15;;
79371;SDS011;68914;51.262;6.802;2023-04-09T06:16:53;34.30;;;16.93;;
79371;SDS011;68914;51.262;6.802;2023-04-09T06:17:53;36.35;;;16.45;;
79371;SDS011;68914;51.262;6.802;2023-04-09T06:18:54;31.60;;;15.93;;
79371;SDS011;68914;51.262;6.802;2023-04-09T06:19:56;32.83;;;15.38;;
79371;SDS011;68914;51.262;6.802;2023-04-09T06:21:06;32.43;;;15.73;;
79371;SDS011;68914;51.262;6.802;2023-04-09T06:22:08;31.92;;;16.00;;
79371;SDS011;68914;51.262;6.802;2023-04-09T06:23:10;31.35;;;15.38;;
79371;SDS011;68914;51.262;6.802;2023-04-09T06:24:10;31.50;;;15.40;;